createdAt,value
2022-10-19T00:02:07.048Z,8.48
2022-10-19T00:04:38.350Z,8.52
2022-10-19T00:07:06.398Z,8.50
2022-10-19T00:09:35.806Z,8.42
2022-10-19T00:12:04.845Z,8.40
2022-10-19T00:14:34.077Z,8.40
2022-10-19T00:17:03.904Z,8.38
2022-10-19T00:19:32.869Z,8.36
2022-10-19T00:22:01.215Z,8.34
2022-10-19T00:24:29.721Z,8.37
2022-10-19T00:27:01.017Z,8.38
2022-10-19T00:29:29.836Z,8.29
2022-10-19T00:31:58.169Z,8.29
2022-10-19T00:34:29.146Z,8.31
2022-10-19T00:36:57.622Z,8.33
2022-10-19T00:39:25.790Z,8.27
2022-10-19T00:41:55.692Z,8.30
2022-10-19T00:44:59.930Z,8.29
2022-10-19T00:47:29.714Z,8.23
2022-10-19T00:50:03.227Z,8.19
2022-10-19T00:52:32.699Z,8.17
2022-10-19T00:55:02.056Z,8.17
2022-10-19T00:57:33.874Z,8.20
2022-10-19T01:00:04.296Z,8.19
2022-10-19T01:02:34.714Z,8.26
2022-10-19T01:05:06.285Z,8.27
2022-10-19T01:07:36.468Z,8.27
2022-10-19T01:10:06.835Z,8.26
2022-10-19T01:12:52.859Z,8.29
2022-10-19T01:15:32.359Z,8.27
2022-10-19T01:18:11.057Z,8.21
2022-10-19T01:21:06.578Z,8.23
2022-10-19T01:24:11.364Z,8.26
2022-10-19T01:27:27.281Z,8.24
2022-10-19T01:30:05.523Z,8.23
2022-10-19T01:32:43.195Z,8.34
2022-10-19T01:35:15.238Z,8.34
2022-10-19T01:37:50.843Z,8.34
2022-10-19T01:40:27.901Z,8.40
2022-10-19T01:43:04.098Z,8.33
2022-10-19T01:45:40.800Z,8.37
2022-10-19T01:48:15.918Z,8.42
2022-10-19T01:50:49.151Z,8.40
2022-10-19T01:53:20.307Z,8.33
2022-10-19T01:55:52.353Z,8.38
2022-10-19T01:58:28.223Z,8.48
2022-10-19T02:01:01.698Z,8.48
2022-10-19T02:03:33.190Z,8.48
2022-10-19T02:06:01.476Z,8.51
2022-10-19T02:08:36.203Z,8.52
2022-10-19T02:11:05.574Z,8.57
2022-10-19T02:13:36.589Z,8.58
2022-10-19T02:16:10.869Z,8.50
2022-10-19T02:18:44.467Z,8.54
2022-10-19T02:21:12.590Z,8.48
2022-10-19T02:23:41.439Z,8.45
2022-10-19T02:26:10.204Z,8.40
2022-10-19T02:28:39.752Z,8.31
2022-10-19T02:31:10.435Z,8.33
2022-10-19T02:33:39.607Z,8.30
2022-10-19T02:36:08.784Z,8.26
2022-10-19T02:38:37.481Z,8.27
2022-10-19T02:41:13.478Z,8.24
2022-10-19T02:43:44.926Z,8.23
2022-10-19T02:46:22.157Z,8.24
2022-10-19T02:48:52.450Z,8.27
2022-10-19T02:51:36.009Z,8.30
2022-10-19T02:54:06.400Z,8.33
2022-10-19T02:56:35.686Z,8.45
2022-10-19T02:59:04.582Z,8.55
2022-10-19T03:01:34.379Z,8.55
2022-10-19T03:04:02.882Z,8.62
2022-10-19T03:06:31.142Z,8.73
2022-10-19T03:08:59.475Z,8.86
2022-10-19T03:11:28.062Z,8.95
2022-10-19T03:13:57.273Z,9.06
2022-10-19T03:16:26.077Z,9.13
2022-10-19T03:18:55.952Z,9.12
2022-10-19T03:21:24.353Z,9.16
2022-10-19T03:23:52.613Z,9.26
2022-10-19T03:26:21.239Z,9.30
2022-10-19T03:28:49.871Z,9.52
2022-10-19T03:31:19.196Z,9.61
2022-10-19T03:33:47.558Z,9.71
2022-10-19T03:36:23.395Z,9.81
2022-10-19T03:38:54.002Z,9.96
2022-10-19T03:41:23.667Z,10.10
2022-10-19T03:43:52.506Z,10.22
2022-10-19T03:46:22.018Z,10.25
2022-10-19T03:48:50.727Z,10.39
2022-10-19T03:51:26.057Z,10.42
2022-10-19T03:53:55.039Z,10.52
2022-10-19T03:56:25.628Z,10.63
2022-10-19T03:58:56.716Z,10.57
2022-10-19T04:01:27.131Z,10.52
2022-10-19T04:03:56.730Z,10.54
2022-10-19T04:06:28.656Z,10.50
2022-10-19T04:08:57.034Z,10.50
2022-10-19T04:11:28.032Z,10.43
2022-10-19T04:13:58.591Z,10.43
2022-10-19T04:16:28.795Z,10.43
2022-10-19T04:18:58.352Z,10.36
2022-10-19T04:21:30.524Z,10.44
2022-10-19T04:24:01.856Z,10.44
2022-10-19T04:26:34.523Z,10.34
2022-10-19T04:29:03.331Z,10.26
2022-10-19T04:31:31.707Z,10.09
2022-10-19T04:34:01.200Z,10.02
2022-10-19T04:36:31.133Z,9.96
2022-10-19T04:39:02.937Z,9.89
2022-10-19T04:41:33.028Z,9.84
2022-10-19T04:44:03.241Z,9.77
2022-10-19T04:46:32.184Z,9.74
2022-10-19T04:49:01.193Z,9.71
2022-10-19T04:51:31.584Z,9.73
2022-10-19T04:54:00.122Z,9.62
2022-10-19T04:56:31.142Z,9.61
2022-10-19T04:59:05.888Z,9.61
2022-10-19T05:01:33.899Z,9.52
2022-10-19T05:04:05.916Z,9.52
2022-10-19T05:06:35.826Z,9.43
2022-10-19T05:09:04.012Z,9.44
2022-10-19T05:11:34.261Z,9.41
2022-10-19T05:14:16.923Z,9.31
2022-10-19T05:16:49.716Z,9.16
2022-10-19T05:19:19.304Z,9.06
2022-10-19T05:21:56.133Z,9.06
2022-10-19T05:24:25.199Z,8.89
2022-10-19T05:26:56.249Z,8.82
2022-10-19T05:29:25.224Z,8.80
2022-10-19T05:31:55.607Z,8.76
2022-10-19T05:34:23.763Z,8.80
2022-10-19T05:36:53.341Z,8.90
2022-10-19T05:39:21.947Z,8.98
2022-10-19T05:41:50.815Z,8.99
2022-10-19T05:44:21.959Z,9.07
2022-10-19T05:46:53.188Z,9.05
2022-10-19T05:49:24.135Z,9.02
2022-10-19T05:51:54.363Z,9.03
2022-10-19T05:54:28.602Z,8.93
2022-10-19T05:56:59.616Z,8.99
2022-10-19T05:59:28.767Z,9.10
2022-10-19T06:01:57.179Z,9.16
2022-10-19T06:04:27.452Z,9.26
2022-10-19T06:06:59.382Z,9.38
2022-10-19T06:09:27.215Z,9.62
2022-10-19T06:12:01.828Z,9.84
2022-10-19T06:14:30.167Z,10.02
2022-10-19T06:16:58.540Z,10.17
2022-10-19T06:19:32.897Z,10.26
2022-10-19T06:22:03.732Z,10.39
2022-10-19T06:24:34.254Z,10.47
2022-10-19T06:27:04.576Z,10.56
2022-10-19T06:29:39.604Z,10.74
2022-10-19T06:32:08.883Z,10.94
2022-10-19T06:34:38.656Z,11.11
2022-10-19T06:37:12.931Z,11.35
2022-10-19T06:39:45.885Z,11.62
2022-10-19T06:42:15.960Z,11.73
2022-10-19T06:44:44.409Z,11.91
2022-10-19T06:47:13.092Z,12.01
2022-10-19T06:49:46.150Z,12.13
2022-10-19T06:52:19.518Z,12.29
2022-10-19T06:54:49.506Z,12.42
2022-10-19T06:57:22.805Z,12.60
2022-10-19T06:59:53.032Z,12.72
2022-10-19T07:02:22.176Z,12.79
2022-10-19T07:04:55.744Z,12.92
2022-10-19T07:07:25.438Z,13.11
2022-10-19T07:10:01.767Z,13.32
2022-10-19T07:12:33.699Z,13.50
2022-10-19T07:15:03.555Z,13.62
2022-10-19T07:17:34.943Z,13.73
2022-10-19T07:20:04.305Z,13.83
2022-10-19T07:22:39.894Z,13.96
2022-10-19T07:25:11.420Z,13.98
2022-10-19T07:27:45.269Z,14.12
2022-10-19T07:30:14.461Z,14.21
2022-10-19T07:32:47.035Z,14.33
2022-10-19T07:35:19.508Z,14.33
2022-10-19T07:37:49.093Z,14.42
2022-10-19T07:40:19.473Z,14.52
2022-10-19T07:42:49.860Z,14.67
2022-10-19T07:45:18.411Z,14.67
2022-10-19T07:47:50.034Z,14.74
2022-10-19T07:50:28.254Z,14.82
2022-10-19T07:53:05.578Z,14.91
2022-10-19T07:55:36.945Z,15.00
2022-10-19T07:58:08.275Z,15.18
2022-10-19T08:06:04.760Z,15.27
2022-10-19T08:08:36.922Z,15.36
2022-10-19T08:11:11.846Z,15.40
2022-10-19T08:13:41.365Z,15.50
2022-10-19T08:16:25.440Z,15.60
2022-10-19T08:19:00.912Z,15.73
2022-10-19T08:21:31.403Z,15.82
2022-10-19T08:24:04.560Z,15.95
2022-10-19T08:26:39.097Z,16.09
2022-10-19T08:29:11.552Z,16.11
2022-10-19T08:31:46.762Z,16.15
2022-10-19T08:34:17.572Z,16.19
2022-10-19T08:36:46.773Z,16.30
2022-10-19T08:39:19.321Z,16.32
2022-10-19T08:42:03.782Z,16.29
2022-10-19T08:44:56.563Z,16.38
2022-10-19T08:47:39.760Z,16.45
2022-10-19T08:50:23.293Z,16.59
2022-10-19T08:52:56.489Z,16.69
2022-10-19T08:55:35.897Z,16.61
2022-10-19T08:58:19.755Z,16.74
2022-10-19T09:00:56.277Z,16.76
2022-10-19T09:03:37.607Z,16.81
2022-10-19T09:06:22.452Z,16.92
2022-10-19T09:08:55.250Z,16.97
2022-10-19T09:11:30.242Z,16.95
2022-10-19T09:14:06.869Z,17.00
2022-10-19T09:16:37.546Z,17.06
2022-10-19T09:19:18.321Z,17.08
2022-10-19T09:21:55.408Z,17.15
2022-10-19T09:24:43.135Z,17.14
2022-10-19T09:27:20.000Z,17.28
2022-10-19T09:29:57.575Z,17.42
2022-10-19T09:32:40.019Z,17.42
2022-10-19T09:35:19.780Z,17.49
2022-10-19T09:37:52.168Z,17.56
2022-10-19T09:40:26.811Z,17.46
2022-10-19T09:43:08.870Z,17.59
2022-10-19T09:45:41.805Z,17.69
2022-10-19T09:48:19.458Z,17.73
2022-10-19T09:50:55.818Z,17.70
2022-10-19T09:53:30.103Z,17.76
2022-10-19T09:56:06.392Z,17.65
2022-10-19T09:58:48.807Z,17.75
2022-10-19T10:01:41.457Z,17.75
2022-10-19T10:04:14.904Z,17.69
2022-10-19T10:06:45.070Z,17.69
2022-10-19T10:09:20.256Z,17.93
2022-10-19T10:11:52.661Z,18.04
2022-10-19T10:14:26.714Z,18.24
2022-10-19T10:17:00.423Z,18.30
2022-10-19T10:19:32.053Z,18.30
2022-10-19T10:22:01.604Z,18.37
2022-10-19T10:24:35.266Z,18.45
2022-10-19T10:27:07.674Z,18.66
2022-10-19T10:29:40.087Z,18.95
2022-10-19T10:32:10.044Z,19.06
2022-10-19T10:34:59.931Z,18.93
2022-10-19T10:37:32.816Z,18.82
2022-10-19T10:40:06.784Z,18.71
2022-10-19T10:42:43.030Z,18.45
2022-10-19T10:45:20.294Z,18.41
2022-10-19T10:47:51.630Z,18.59
2022-10-19T10:50:25.425Z,18.72
2022-10-19T10:53:13.890Z,18.93
2022-10-19T10:55:48.741Z,19.09
2022-10-19T10:58:25.500Z,18.99
2022-10-19T11:01:07.658Z,19.03
2022-10-19T11:03:44.575Z,18.96
2022-10-19T11:06:16.115Z,18.80
2022-10-19T11:08:50.175Z,18.49
2022-10-19T11:11:24.465Z,18.20
2022-10-19T11:14:02.959Z,18.27
2022-10-19T11:16:38.847Z,18.56
2022-10-19T11:21:53.773Z,18.98
2022-10-19T11:24:33.546Z,19.03
2022-10-19T11:27:15.760Z,19.04
2022-10-19T11:29:56.883Z,18.96
2022-10-19T11:32:38.162Z,19.11
2022-10-19T11:35:27.440Z,19.38
2022-10-19T11:38:19.444Z,19.57
2022-10-19T11:41:16.891Z,19.88
2022-10-19T11:43:58.286Z,19.88
2022-10-19T11:46:35.830Z,19.59
2022-10-19T11:49:20.690Z,19.74
2022-10-19T11:51:57.905Z,19.54
2022-10-19T11:54:42.026Z,19.53
2022-10-19T11:57:14.958Z,19.50
2022-10-19T12:00:08.290Z,19.26
2022-10-19T12:03:13.122Z,19.31
2022-10-19T12:05:54.653Z,19.35
2022-10-19T12:08:43.601Z,19.21
2022-10-19T12:11:30.496Z,18.95
2022-10-19T12:14:04.183Z,19.07
2022-10-19T12:16:41.245Z,19.38
2022-10-19T12:19:21.172Z,19.54
2022-10-19T12:21:54.996Z,19.44
2022-10-19T12:24:28.653Z,19.28
2022-10-19T12:27:01.504Z,19.47
2022-10-19T12:29:41.416Z,19.32
2022-10-19T12:32:16.764Z,19.03
2022-10-19T12:34:53.427Z,19.30
2022-10-19T12:37:30.289Z,19.59
2022-10-19T12:40:06.182Z,19.59
2022-10-19T12:42:40.283Z,19.51
2022-10-19T12:45:23.410Z,19.43
2022-10-19T12:48:21.683Z,19.37
2022-10-19T12:51:06.772Z,19.55
2022-10-19T12:53:40.422Z,19.67
2022-10-19T12:56:14.890Z,19.65
2022-10-19T12:58:51.236Z,19.72
2022-10-19T13:01:28.119Z,19.78
2022-10-19T13:04:10.570Z,19.57
2022-10-19T13:06:43.288Z,19.21
2022-10-19T13:09:24.546Z,19.13
2022-10-19T13:12:26.261Z,18.96
2022-10-19T13:14:55.929Z,18.88
2022-10-19T13:17:49.386Z,18.79
2022-10-19T13:20:49.741Z,18.66
2022-10-19T13:23:42.366Z,18.59
2022-10-19T13:26:35.569Z,18.63
2022-10-19T13:29:28.968Z,18.62
2022-10-19T13:32:18.497Z,18.53
2022-10-19T13:34:47.522Z,18.48
2022-10-19T13:37:23.855Z,18.45
2022-10-19T13:39:56.533Z,18.45
2022-10-19T13:42:28.634Z,18.44
2022-10-19T13:45:00.185Z,18.47
2022-10-19T13:50:37.408Z,18.35
2022-10-19T13:53:25.631Z,18.20
2022-10-19T13:56:14.627Z,18.18
2022-10-19T13:59:24.766Z,18.03
2022-10-19T14:02:17.496Z,18.05
2022-10-19T14:04:54.017Z,17.96
2022-10-19T14:07:28.452Z,17.82
2022-10-19T14:10:11.576Z,17.73
2022-10-19T14:12:43.347Z,17.69
2022-10-19T14:15:28.382Z,17.62
2022-10-19T14:18:06.157Z,17.56
2022-10-19T14:20:40.673Z,17.48
2022-10-19T14:23:24.586Z,17.46
2022-10-19T14:25:57.189Z,17.42
2022-10-19T14:28:28.751Z,17.38
2022-10-19T14:31:00.017Z,17.29
2022-10-19T14:33:37.158Z,17.24
2022-10-19T14:36:08.264Z,17.15
2022-10-19T14:38:46.523Z,17.07
2022-10-19T14:41:21.783Z,17.03
2022-10-19T14:43:55.139Z,17.03
2022-10-19T14:46:27.304Z,16.98
2022-10-19T14:49:01.719Z,16.84
2022-10-19T14:51:36.093Z,16.74
2022-10-19T14:54:08.748Z,16.70
2022-10-19T14:56:42.334Z,16.61
2022-10-19T14:59:23.540Z,16.53
2022-10-19T15:01:53.826Z,16.50
2022-10-19T15:04:27.680Z,16.40
2022-10-19T15:06:59.028Z,16.36
2022-10-19T15:09:37.288Z,16.26
2022-10-19T15:12:10.337Z,16.21
2022-10-19T15:14:39.300Z,16.11
2022-10-19T15:17:24.361Z,16.00
2022-10-19T15:20:00.108Z,15.98
2022-10-19T15:22:40.250Z,15.90
2022-10-19T15:25:29.252Z,15.80
2022-10-19T15:27:57.922Z,15.81
2022-10-19T15:30:29.853Z,15.68
2022-10-19T15:33:11.905Z,15.54
2022-10-19T15:35:44.297Z,15.44
2022-10-19T15:38:20.763Z,15.39
2022-10-19T15:40:49.521Z,15.27
2022-10-19T15:43:45.339Z,15.12
2022-10-19T15:46:25.787Z,15.09
2022-10-19T15:48:55.784Z,14.98
2022-10-19T15:51:45.615Z,14.92
2022-10-19T15:54:17.377Z,14.77
2022-10-19T15:56:47.607Z,14.77
2022-10-19T15:59:18.130Z,14.72
2022-10-19T16:01:52.415Z,14.74
2022-10-19T16:04:24.489Z,14.68
2022-10-19T16:06:54.239Z,14.79
2022-10-19T16:09:23.287Z,14.69
2022-10-19T16:11:57.044Z,14.63
2022-10-19T16:14:26.486Z,14.48
2022-10-19T16:17:04.014Z,14.48
2022-10-19T16:19:32.781Z,14.47
2022-10-19T16:22:02.542Z,14.45
2022-10-19T16:24:30.780Z,14.36
2022-10-19T16:27:00.315Z,14.38
2022-10-19T16:29:29.104Z,14.27
2022-10-19T16:31:57.553Z,14.27
2022-10-19T16:34:26.220Z,14.24
2022-10-19T16:36:56.377Z,14.07
2022-10-19T16:39:26.428Z,14.03
2022-10-19T16:41:54.671Z,13.93
2022-10-19T16:44:23.237Z,13.86
2022-10-19T16:46:51.772Z,13.79
2022-10-19T16:49:26.520Z,13.79
2022-10-19T16:51:57.792Z,13.75
2022-10-19T16:54:33.144Z,13.73
2022-10-19T16:57:08.656Z,13.82
2022-10-19T16:59:43.263Z,13.73
2022-10-19T17:02:13.840Z,13.71
2022-10-19T17:04:43.151Z,13.76
2022-10-19T17:07:20.482Z,13.69
2022-10-19T17:09:54.829Z,13.61
2022-10-19T17:12:27.171Z,13.48
2022-10-19T17:15:11.573Z,13.51
2022-10-19T17:17:47.815Z,13.51
2022-10-19T17:20:18.181Z,13.41
2022-10-19T17:22:55.610Z,13.40
2022-10-19T17:25:26.149Z,13.30
2022-10-19T17:27:56.600Z,13.23
2022-10-19T17:30:28.561Z,13.18
2022-10-19T17:33:01.726Z,13.20
2022-10-19T17:35:30.109Z,13.20
2022-10-19T17:37:59.164Z,13.04
2022-10-19T17:40:30.271Z,12.97
2022-10-19T17:42:59.527Z,12.90
2022-10-19T17:45:29.037Z,12.89
2022-10-19T17:47:58.278Z,12.79
2022-10-19T17:50:27.493Z,12.67
2022-10-19T17:52:56.502Z,12.77
2022-10-19T17:55:26.076Z,12.73
2022-10-19T17:57:56.233Z,12.72
2022-10-19T18:00:26.975Z,12.65
2022-10-19T18:02:58.185Z,12.55
2022-10-19T18:05:30.321Z,12.55
2022-10-19T18:07:58.796Z,12.46
2022-10-19T18:10:28.663Z,12.38
2022-10-19T18:13:01.148Z,12.22
2022-10-19T18:15:29.692Z,12.17
2022-10-19T18:18:00.534Z,12.17
2022-10-19T18:20:29.254Z,12.07
2022-10-19T18:22:57.984Z,12.10
2022-10-19T18:25:49.369Z,12.10
2022-10-19T18:28:19.252Z,12.05
2022-10-19T18:30:48.492Z,11.95
2022-10-19T18:33:19.280Z,11.90
2022-10-19T18:35:48.151Z,11.86
2022-10-19T18:38:16.947Z,11.83
2022-10-19T18:40:46.743Z,11.83
2022-10-19T18:43:16.400Z,11.77
2022-10-19T18:45:53.583Z,11.70
2022-10-19T18:48:24.192Z,11.55
2022-10-19T18:50:54.147Z,11.47
2022-10-19T18:53:23.419Z,11.42
2022-10-19T18:55:59.783Z,11.36
2022-10-19T18:58:30.498Z,11.29
2022-10-19T19:01:09.609Z,11.29
2022-10-19T19:03:43.554Z,11.35
2022-10-19T19:06:14.356Z,11.36
2022-10-19T19:11:20.694Z,11.39
2022-10-19T19:13:50.695Z,11.30
2022-10-19T19:16:22.803Z,11.30
2022-10-19T19:18:54.687Z,11.23
2022-10-19T19:21:27.018Z,11.11
2022-10-19T19:23:59.751Z,11.12
2022-10-19T19:26:31.550Z,11.02
2022-10-19T19:29:00.261Z,10.98
2022-10-19T19:31:30.470Z,10.91
2022-10-19T19:34:02.083Z,10.85
2022-10-19T19:36:31.168Z,10.78
2022-10-19T19:39:00.663Z,10.71
2022-10-19T19:41:34.220Z,10.65
2022-10-19T19:44:04.949Z,10.57
2022-10-19T19:46:36.089Z,10.49
2022-10-19T19:49:06.657Z,10.39
2022-10-19T19:51:38.389Z,10.30
2022-10-19T19:54:08.651Z,10.23
2022-10-19T19:56:37.553Z,10.17
2022-10-19T19:59:06.411Z,10.03
2022-10-19T20:01:38.101Z,10.05
2022-10-19T20:04:07.242Z,10.02
2022-10-19T20:06:37.873Z,10.03
2022-10-19T20:09:07.852Z,9.98
2022-10-19T20:11:42.368Z,9.92
2022-10-19T20:14:12.764Z,9.84
2022-10-19T20:16:46.635Z,9.79
2022-10-19T20:19:18.641Z,9.71
2022-10-19T20:21:47.319Z,9.64
2022-10-19T20:24:16.666Z,9.57
2022-10-19T20:26:47.645Z,9.51
2022-10-19T20:29:18.748Z,9.44
2022-10-19T20:31:48.837Z,9.46
2022-10-19T20:34:23.853Z,9.46
2022-10-19T20:36:55.061Z,9.34
2022-10-19T20:39:24.185Z,9.33
2022-10-19T20:41:52.773Z,9.22
2022-10-19T20:44:21.934Z,9.15
2022-10-19T20:46:56.549Z,8.93
2022-10-19T20:49:28.592Z,8.86
2022-10-19T20:51:58.820Z,8.68
2022-10-19T20:54:28.060Z,8.64
2022-10-19T20:56:56.648Z,8.55
2022-10-19T20:59:30.398Z,8.52
2022-10-19T21:02:05.239Z,8.47
2022-10-19T21:04:33.456Z,8.33
2022-10-19T21:07:05.036Z,8.26
2022-10-19T21:09:38.050Z,8.20
2022-10-19T21:12:06.767Z,8.14
2022-10-19T21:14:37.127Z,8.04
2022-10-19T21:17:09.728Z,8.03
2022-10-19T21:19:43.181Z,7.97
2022-10-19T21:22:15.128Z,7.83
2022-10-19T21:24:47.391Z,7.78
2022-10-19T21:27:17.560Z,7.79
2022-10-19T21:29:48.386Z,7.79
2022-10-19T21:32:22.631Z,7.81
2022-10-19T21:34:51.600Z,7.76
2022-10-19T21:37:21.576Z,7.81
2022-10-19T21:39:56.956Z,7.78
2022-10-19T21:42:27.196Z,7.75
2022-10-19T21:45:06.232Z,7.79
2022-10-19T21:47:48.248Z,7.79
2022-10-19T21:50:20.913Z,7.61
2022-10-19T21:52:52.210Z,7.52
2022-10-19T21:55:21.288Z,7.51
2022-10-19T21:57:50.376Z,7.48
2022-10-19T22:00:19.738Z,7.51
2022-10-19T22:02:51.925Z,7.48
2022-10-19T22:05:20.127Z,7.54
2022-10-19T22:07:48.494Z,7.73
2022-10-19T22:10:20.492Z,7.75
2022-10-19T22:12:54.031Z,7.82
2022-10-19T22:15:22.948Z,7.87
2022-10-19T22:17:54.772Z,7.75
2022-10-19T22:20:27.885Z,7.66
2022-10-19T22:22:56.897Z,7.73
2022-10-19T22:25:28.895Z,7.82
2022-10-19T22:28:01.225Z,7.79
2022-10-19T22:30:34.230Z,7.81
2022-10-19T22:33:05.958Z,7.72
2022-10-19T22:35:36.639Z,7.62
2022-10-19T22:38:08.154Z,7.69
2022-10-19T22:40:38.806Z,7.59
2022-10-19T22:43:07.069Z,7.56
2022-10-19T22:45:35.377Z,7.45
2022-10-19T22:48:08.429Z,7.41
2022-10-19T22:50:37.090Z,7.34
2022-10-19T22:53:08.140Z,7.17
2022-10-19T22:55:38.300Z,6.97
2022-10-19T22:58:12.524Z,6.93
2022-10-19T23:00:41.408Z,6.80
2022-10-19T23:03:11.589Z,6.66
2022-10-19T23:05:40.134Z,6.55
2022-10-19T23:08:08.783Z,6.46
2022-10-19T23:10:37.316Z,6.38
2022-10-19T23:13:05.697Z,6.29
2022-10-19T23:15:43.127Z,6.24
2022-10-19T23:18:14.061Z,6.17
2022-10-19T23:20:46.650Z,6.16
2022-10-19T23:23:15.073Z,6.11
2022-10-19T23:25:44.853Z,5.97
2022-10-19T23:28:13.850Z,5.93
2022-10-19T23:30:42.390Z,5.83
2022-10-19T23:33:10.911Z,5.71
2022-10-19T23:35:41.291Z,5.63
2022-10-19T23:38:11.174Z,5.46
2022-10-19T23:40:39.417Z,5.36
2022-10-19T23:43:11.562Z,5.34
2022-10-19T23:45:41.794Z,5.28
2022-10-19T23:48:10.039Z,5.24
2022-10-19T23:50:39.760Z,5.22
2022-10-19T23:53:09.431Z,5.19
2022-10-19T23:55:37.537Z,5.10
2022-10-19T23:58:06.298Z,5.07
